Azure — ZCEE2 — position and weather

sailwx.info

Track history (hours):
 
Tides and Currents Weather Stations Pressure Air Temp Water Temp Dewpoint Dewpoint Depression Visibility Wind Speed Wind Dir Waves Ship Positions

Azure

Last reported at 2018-Jun-24 13:00 UTC. Time now 2018-Jun-24 20:17 UTC.
Position N 54°18' E 003°36'.

Length 289 m; draft 8.7 m.

Type: Passenger vessel. MMSI: 310610000.

Wind from 340 at 22 knots

Barometer 1023.7 mb
Air temperature 14.0 ° C
Visibility: greater than 10.8 NM
Dewpoint 11.2 ° C
Water temperature 14.0 ° C

Date/timePositionNaut miles runAvg speedWind from/ knotsBaromVisibWave heightAir tempDewpointWater temp
2018-Jun-24 13:00N 54°18' E 003°36'4816.1 340 / 221023.710.8 14.011.214.0
2018-Jun-24 10:00N 53°34' E 003°03'918.2
2018-Jun-24 09:28N 53°25' E 002°56'918.2
2018-Jun-24 09:00N 53°18' E 002°48'419.3 310 / 181021.610.8 15.0 9.213.0
2018-Jun-24 08:46N 53°14' E 002°47'918.0
2018-Jun-24 08:16N 53°05' E 002°42'717.6
2018-Jun-24 07:53N 52°59' E 002°40'717.5
2018-Jun-24 07:30N 52°52' E 002°40'1017.2
2018-Jun-24 06:56N 52°42' E 002°41'717.3
2018-Jun-24 06:30N 52°35' E 002°41'917.3
2018-Jun-24 06:00N 52°26' E 002°41'917.3
2018-Jun-24 05:30N 52°18' E 002°41'917.3
2018-Jun-24 05:00N 52°09' E 002°40'917.3
2018-Jun-24 04:30N 52°00' E 002°40'917.3
2018-Jun-24 04:00N 51°52' E 002°37'917.6
2018-Jun-24 03:30N 51°44' E 002°31'917.9
2018-Jun-24 03:01N 51°37' E 002°22'918.3
2018-Jun-24 02:31N 51°29' E 002°14'918.0
2018-Jun-24 02:01N 51°21' E 002°07'918.2
2018-Jun-24 01:30N 51°13' E 002°01'918.6
2018-Jun-24 01:00N 51°09' E 001°48'5322.4
2018-Jun-24 01:00N 51°12' E 001°54'1529.9 050 / 101024.610.8 15.011.315.0
2018-Jun-24 00:30N 51°03' E 001°36'918.7
2018-Jun-24 00:00N 50°55' E 001°29'1019.6
2018-Jun-23 23:31N 50°45' E 001°25'918.9
2018-Jun-23 23:00N 50°38' E 001°16'918.9
2018-Jun-23 22:31N 50°33' E 001°03'918.8
2018-Jun-23 22:00N 50°30' E 000°49'918.7
2018-Jun-23 21:31N 50°27' E 000°35'918.6
2018-Jun-23 21:01N 50°25' E 000°21'1018.8
2018-Jun-23 20:30N 50°23' E 000°06'918.9
2018-Jun-23 20:00N 50°24' W 000°08'1019.5
2018-Jun-23 19:31N 50°28' W 000°22'1019.6
2018-Jun-23 19:01N 50°32' W 000°36'918.9
2018-Jun-23 18:30N 50°37' W 000°49'612.8
2018-Jun-23 18:00N 50°41' W 000°57'714.4
2018-Jun-23 17:30N 50°45' W 001°06'816.7
2018-Jun-23 17:00N 50°47' W 001°19'4 8.7
2018-Jun-23 16:30N 50°51' W 001°21'3 5.3
2018-Jun-23 15:59N 50°53' W 001°24'0 0.0
2018-Jun-23 15:29N 50°53' W 001°24'0 0.0
2018-Jun-23 14:59N 50°53' W 001°24'0 0.0
2018-Jun-23 14:29N 50°53' W 001°24'0 0.0
2018-Jun-23 13:59N 50°53' W 001°24'0 0.0
2018-Jun-23 13:29N 50°53' W 001°24'0 0.0
2018-Jun-23 12:59N 50°53' W 001°24'0 0.0
2018-Jun-23 12:29N 50°53' W 001°24'0 0.0
2018-Jun-23 11:59N 50°53' W 001°24'0 0.0
2018-Jun-23 11:29N 50°53' W 001°24'0 0.0
2018-Jun-23 10:59N 50°53' W 001°24'0 0.0
2018-Jun-23 10:29N 50°53' W 001°24'0 0.0
2018-Jun-23 09:59N 50°53' W 001°24'0 0.0
2018-Jun-23 09:29N 50°53' W 001°24'0 0.0
2018-Jun-23 08:59N 50°53' W 001°24'0 0.0
2018-Jun-23 08:28N 50°53' W 001°24'0 0.0
2018-Jun-23 07:58N 50°53' W 001°24'0 0.0
2018-Jun-23 07:28N 50°53' W 001°24'0 0.0
2018-Jun-23 06:58N 50°53' W 001°24'0 0.0
2018-Jun-23 06:28N 50°53' W 001°24'0 0.0
2018-Jun-23 05:58N 50°53' W 001°24'0 0.0
2018-Jun-23 05:28N 50°53' W 001°24'0 0.4
2018-Jun-23 05:00N 50°53' W 001°24'2 4.4
2018-Jun-23 04:30N 50°52' W 001°22'4 9.0
2018-Jun-23 04:00N 50°48' W 001°18'510.7
2018-Jun-23 03:30N 50°46' W 001°10'816.6
2018-Jun-23 03:01N 50°42' W 000°58'612.1
2018-Jun-23 02:31N 50°38' W 000°52'713.8
2018-Jun-23 02:01N 50°36' W 000°42'714.0
2018-Jun-23 01:30N 50°33' W 000°31'815.2
2018-Jun-23 01:00N 50°33' W 000°19'917.2
2018-Jun-23 00:30N 50°31' W 000°06'1019.6
2018-Jun-23 00:00N 50°33' E 000°09'3202.3
2018-Jun-23 00:00N 50°30' E 000°06'1224.6 130 / 121030.610.8 14.011.214.0
2018-Jun-22 23:30N 50°34' E 000°23'918.6
2018-Jun-22 23:00N 50°38' E 000°37'918.3
2018-Jun-22 22:30N 50°42' E 000°50'917.8
2018-Jun-22 22:00N 50°48' E 001°01'917.7
2018-Jun-22 21:30N 50°53' E 001°12'917.2
2018-Jun-22 21:00N 50°58' E 001°23'917.6
2018-Jun-22 20:30N 51°05' E 001°32'917.5
2018-Jun-22 20:00N 51°11' E 001°41'917.3
2018-Jun-22 19:30N 51°19' E 001°49'917.8
2018-Jun-22 19:00N 51°26' E 001°57'918.2
2018-Jun-22 18:30N 51°32' E 002°08'918.4
2018-Jun-22 18:00N 51°39' E 002°18'1019.1
2018-Jun-22 17:29N 51°46' E 002°28'1018.8
2018-Jun-22 16:58N 51°55' E 002°36'5518.7
2018-Jun-22 14:02N 52°47' E 003°07'14215.7
2018-Jun-22 05:00N 54°48' E 005°12'9724.3 090 / 501022.210.8 16.013.314.0
2018-Jun-22 01:00N 56°06' E 006°54'16418.6 340 / 381013.010.8 12.0 7.914.0
2018-Jun-21 16:09N 57°50' E 010°47'518.0
2018-Jun-21 15:51N 57°45' E 010°46'9 0.8
2018-Jun-21 05:21N 57°41' E 011°00'719.5
2018-Jun-21 05:00N 57°37' E 011°10'1020.0
2018-Jun-21 04:30N 57°30' E 011°24'1019.3
2018-Jun-21 04:00N 57°21' E 011°32'7017.7
2018-Jun-21 00:03N 56°15' E 012°15'118.1
2018-Jun-21 00:00N 56°15' E 012°16'917.9
2018-Jun-20 23:30N 56°10' E 012°30'815.7
2018-Jun-20 23:00N 56°04' E 012°38'815.9
2018-Jun-20 22:30N 55°56' E 012°39'815.7
2018-Jun-20 22:00N 55°48' E 012°43'611.5
2018-Jun-20 21:30N 55°43' E 012°39'2 3.5
2018-Jun-20 20:59N 55°42' E 012°36'0 0.0
2018-Jun-20 20:28N 55°42' E 012°36'0 0.0
2018-Jun-20 19:59N 55°42' E 012°36'0 0.0
2018-Jun-20 19:31N 55°42' E 012°36'0 0.0
2018-Jun-20 19:01N 55°42' E 012°36'0 0.0
2018-Jun-20 18:29N 55°42' E 012°36'0 0.0
2018-Jun-20 17:59N 55°42' E 012°36'0 0.0
2018-Jun-20 17:29N 55°42' E 012°36'0 0.0
2018-Jun-20 16:59N 55°42' E 012°36'0 0.0
2018-Jun-20 16:28N 55°42' E 012°36'0 0.0
2018-Jun-20 15:59N 55°42' E 012°36'0 0.0
2018-Jun-20 15:29N 55°42' E 012°36'0 0.0
2018-Jun-20 14:59N 55°42' E 012°36'0 0.0
2018-Jun-20 14:28N 55°42' E 012°36'0 0.0
2018-Jun-20 13:58N 55°42' E 012°36'0 0.0
2018-Jun-20 13:28N 55°42' E 012°36'0 0.0
2018-Jun-20 12:58N 55°42' E 012°36'0 0.0
2018-Jun-20 12:30N 55°42' E 012°36'0 0.0
2018-Jun-20 12:00N 55°42' E 012°36'0 0.0
2018-Jun-20 11:30N 55°42' E 012°36'0 0.0
2018-Jun-20 11:00N 55°42' E 012°36'0 0.0
2018-Jun-20 10:30N 55°42' E 012°36'0 0.0
2018-Jun-20 09:59N 55°42' E 012°36'0 0.0
2018-Jun-20 09:29N 55°42' E 012°36'0 0.0
2018-Jun-20 09:00N 55°42' E 012°36'0 0.0
2018-Jun-20 08:29N 55°42' E 012°36'0 0.0
2018-Jun-20 08:00N 55°42' E 012°36'0 0.0
2018-Jun-20 07:30N 55°42' E 012°36'0 0.1
2018-Jun-20 07:00N 55°42' E 012°36'1 1.7
2018-Jun-20 06:30N 55°43' E 012°37'510.6
2018-Jun-20 06:00N 55°47' E 012°42'815.4
2018-Jun-20 05:30N 55°54' E 012°38'917.1
2018-Jun-20 05:00N 56°03' E 012°39'816.1
2018-Jun-20 04:30N 56°08' E 012°28'1417.7
2018-Jun-20 03:44N 56°11' E 012°03'5914.5
2018-Jun-19 23:41N 55°24' E 011°00'818.1
2018-Jun-19 23:16N 55°17' E 011°03'518.0
2018-Jun-19 23:00N 55°12' E 011°06'917.7
2018-Jun-19 22:30N 55°04' E 011°02'917.1
2018-Jun-19 22:00N 54°56' E 010°56'815.9
2018-Jun-19 21:30N 54°49' E 010°52'713.6
2018-Jun-19 21:00N 54°42' E 010°55'917.9
2018-Jun-19 20:30N 54°38' E 011°08'918.4
2018-Jun-19 20:00N 54°34' E 011°23'918.6
2018-Jun-19 19:30N 54°29' E 011°36'918.4
2018-Jun-19 19:00N 54°27' E 011°52'918.3
2018-Jun-19 18:30N 54°27' E 012°07'917.6
2018-Jun-19 18:00N 54°35' E 012°14'6518.4
2018-Jun-19 14:28N 55°01' E 013°56'919.6
2018-Jun-19 14:00N 55°07' E 014°10'1019.8
2018-Jun-19 13:30N 55°15' E 014°20'1019.8
2018-Jun-19 13:00N 55°22' E 014°31'1019.8
2018-Jun-19 12:30N 55°28' E 014°45'1019.8
2018-Jun-19 11:58N 55°34' E 015°00'1219.5
2018-Jun-19 11:22N 55°41' E 015°18'3928.3
2018-Jun-19 10:00N 56°00' E 016°18'15018.8 250 / 381013.2 16.510.916.0
2018-Jun-19 02:00N 58°12' E 018°30'5518.3 220 / 301008.310.8 17.013.516.0
2018-Jun-18 22:57N 58°60' E 019°24'920.0
2018-Jun-18 22:30N 59°08' E 019°33'1120.8
2018-Jun-18 21:57N 59°17' E 019°45'1020.1
2018-Jun-18 21:28N 59°26' E 019°55'4 9.3
2018-Jun-18 21:00N 59°30' E 019°54'6146.7 230 / 251010.710.8 14.512.7
2018-Jun-18 20:57N 59°36' E 019°58'1019.6
2018-Jun-18 20:27N 59°43' E 019°47'919.2
2018-Jun-18 20:00N 59°47' E 019°31'816.3
2018-Jun-18 19:29N 59°45' E 019°16'918.0
2018-Jun-18 18:59N 59°41' E 018°59'510.3
2018-Jun-18 18:30N 59°38' E 018°52'612.2
2018-Jun-18 18:00N 59°35' E 018°42'510.4
2018-Jun-18 17:30N 59°32' E 018°33'510.7
2018-Jun-18 17:00N 59°28' E 018°26'4 8.7
2018-Jun-18 16:30N 59°24' E 018°27'3 5.3
2018-Jun-18 16:00N 59°22' E 018°22'4 8.9
2018-Jun-18 15:30N 59°21' E 018°14'4 8.3
2018-Jun-18 15:00N 59°19' E 018°06'0 0.1
2018-Jun-18 14:23N 59°19' E 018°06'0 0.0
2018-Jun-18 13:59N 59°19' E 018°06'0 0.0
2018-Jun-18 13:29N 59°19' E 018°06'0 0.0
2018-Jun-18 12:59N 59°19' E 018°06'0 0.0
2018-Jun-18 12:29N 59°19' E 018°06'0 0.0
2018-Jun-18 12:00N 59°19' E 018°06'0 0.0
2018-Jun-18 11:25N 59°19' E 018°06'0 0.0
2018-Jun-18 10:56N 59°19' E 018°06'0 0.0
2018-Jun-18 10:17N 59°19' E 018°06'0 0.0
2018-Jun-18 09:59N 59°19' E 018°06'0 0.0
2018-Jun-18 09:30N 59°19' E 018°06'0 0.0
2018-Jun-18 08:58N 59°19' E 018°06'0 0.0
2018-Jun-18 08:27N 59°19' E 018°06'0 0.0
2018-Jun-18 07:57N 59°19' E 018°06'0 0.0
2018-Jun-18 07:27N 59°19' E 018°06'0 0.0
2018-Jun-18 06:33N 59°19' E 018°06'0 0.0
2018-Jun-18 06:14N 59°19' E 018°06'0 0.0
2018-Jun-18 06:00N 59°19' E 018°06'0 0.4
2018-Jun-18 05:30N 59°19' E 018°07'2 3.4
2018-Jun-18 05:00N 59°19' E 018°10'611.2
2018-Jun-18 04:30N 59°23' E 018°19'4 8.2
2018-Jun-18 04:00N 59°22' E 018°27'4 8.8
2018-Jun-18 03:30N 59°27' E 018°24'510.7
2018-Jun-18 03:00N 59°31' E 018°30'5 9.8
2018-Jun-18 02:30N 59°34' E 018°38'611.3
2018-Jun-18 02:00N 59°37' E 018°48'510.6
2018-Jun-18 01:29N 59°40' E 018°56'815.3
2018-Jun-18 00:58N 59°44' E 019°10'816.0
2018-Jun-18 00:27N 59°47' E 019°25'714.4
2018-Jun-17 23:59N 59°48' E 019°39'916.6
2018-Jun-17 23:28N 59°44' E 019°53'2316.2
2018-Jun-17 22:02N 59°37' E 020°37'017.4
2018-Jun-17 22:00N 59°37' E 020°38'917.4
2018-Jun-17 21:30N 59°33' E 020°54'917.4
2018-Jun-17 21:00N 59°30' E 021°10'917.4
2018-Jun-17 20:31N 59°26' E 021°25'917.1
2018-Jun-17 20:00N 59°26' E 021°42'917.4
2018-Jun-17 19:28N 59°26' E 022°01'917.0
2018-Jun-17 18:55N 59°27' E 022°19'717.3
2018-Jun-17 18:31N 59°29' E 022°32'917.5
2018-Jun-17 18:00N 59°32' E 022°49'917.4
2018-Jun-17 17:31N 59°33' E 023°06'917.2
2018-Jun-17 17:00N 59°34' E 023°23'917.3
2018-Jun-17 16:30N 59°32' E 023°39'917.4
2018-Jun-17 16:00N 59°31' E 023°56'917.3
2018-Jun-17 15:31N 59°30' E 024°13'917.6
2018-Jun-17 15:00N 59°30' E 024°31'612.7
2018-Jun-17 14:30N 59°32' E 024°43'510.4
2018-Jun-17 14:00N 59°27' E 024°46'0 0.7
2018-Jun-17 13:30N 59°27' E 024°46'0 0.0
2018-Jun-17 12:59N 59°27' E 024°46'0 0.0
2018-Jun-17 12:28N 59°27' E 024°46'0 0.0
2018-Jun-17 12:00N 59°27' E 024°46'0 0.0
2018-Jun-17 11:30N 59°27' E 024°46'0 0.0
2018-Jun-17 11:00N 59°27' E 024°46'0 0.0
2018-Jun-17 10:29N 59°27' E 024°46'0 0.0
2018-Jun-17 10:00N 59°27' E 024°46'0 0.0
2018-Jun-17 09:28N 59°27' E 024°46'0 0.0
2018-Jun-17 09:00N 59°27' E 024°46'0 0.0
2018-Jun-17 08:29N 59°27' E 024°46'0 0.0
2018-Jun-17 07:55N 59°27' E 024°46'0 0.0
2018-Jun-17 07:30N 59°27' E 024°46'0 0.0
2018-Jun-17 06:59N 59°27' E 024°46'0 0.0
2018-Jun-17 06:28N 59°27' E 024°46'0 0.0
2018-Jun-17 05:58N 59°27' E 024°46'0 0.0
2018-Jun-17 05:28N 59°27' E 024°46'0 0.0
2018-Jun-17 04:58N 59°27' E 024°46'0 0.1
2018-Jun-17 04:30N 59°27' E 024°46'3 6.3
2018-Jun-17 04:01N 59°30' E 024°44'815.5
2018-Jun-17 03:30N 59°37' E 024°39'612.5
2018-Jun-17 03:00N 59°44' E 024°39'815.7
2018-Jun-17 02:30N 59°50' E 024°48'918.4
2018-Jun-17 02:00N 59°52' E 025°06'918.5
2018-Jun-17 01:30N 59°53' E 025°24'1018.0
2018-Jun-17 00:57N 59°54' E 025°44'818.1
2018-Jun-17 00:30N 59°56' E 025°60'917.9
2018-Jun-17 00:00N 59°59' E 026°17'7592.2
2018-Jun-17 00:00N 59°54' E 026°06'1632.7 140 / 91017.110.8 18.014.617.0
2018-Jun-16 23:30N 60°01' E 026°34'917.8
2018-Jun-16 23:00N 60°00' E 026°52'817.0
2018-Jun-16 22:30N 60°01' E 027°09'918.2
2018-Jun-16 22:00N 60°06' E 027°24'918.1
2018-Jun-16 21:30N 60°10' E 027°40'816.5
2018-Jun-16 21:00N 60°10' E 027°56'917.5
2018-Jun-16 20:30N 60°08' E 028°13'917.1
2018-Jun-16 20:00N 60°04' E 028°28'817.0
2018-Jun-16 19:30N 60°03' E 028°45'917.8
2018-Jun-16 19:00N 60°02' E 029°03'917.7
2018-Jun-16 18:30N 60°02' E 029°21'511.3
2018-Jun-16 18:00N 60°01' E 029°32'711.2
2018-Jun-16 17:25N 59°59' E 029°44'4 9.1
2018-Jun-16 17:00N 59°57' E 029°51'510.3
2018-Jun-16 16:30N 59°55' E 030°00'5 9.4
2018-Jun-16 16:00N 59°57' E 030°09'1 1.8
2018-Jun-16 15:28N 59°57' E 030°11'0 0.0
2018-Jun-16 14:58N 59°57' E 030°11'0 0.0
2018-Jun-16 14:30N 59°57' E 030°11'0 0.0
2018-Jun-16 14:01N 59°57' E 030°11'0 0.0
2018-Jun-16 13:28N 59°57' E 030°11'0 0.0
2018-Jun-16 12:59N 59°57' E 030°11'0 0.0
2018-Jun-16 12:25N 59°57' E 030°11'0 0.0
2018-Jun-16 12:00N 59°57' E 030°11'0 0.0
2018-Jun-16 11:27N 59°57' E 030°11'0 0.0
2018-Jun-16 11:00N 59°57' E 030°11'0 0.0
2018-Jun-16 10:29N 59°57' E 030°11'0 0.0
2018-Jun-16 09:55N 59°57' E 030°11'0 0.0
2018-Jun-16 09:30N 59°57' E 030°11'0 0.0
2018-Jun-16 09:01N 59°57' E 030°11'0 0.0
2018-Jun-16 08:30N 59°57' E 030°11'0 0.0
2018-Jun-16 07:56N 59°57' E 030°11'0 0.0
2018-Jun-16 07:13N 59°57' E 030°11'0 0.0
2018-Jun-16 06:56N 59°57' E 030°11'0 0.0
2018-Jun-16 06:29N 59°57' E 030°11'0 0.0
2018-Jun-16 05:49N 59°57' E 030°11'0 0.0
2018-Jun-16 05:28N 59°57' E 030°11'0 0.0
2018-Jun-16 05:00N 59°57' E 030°11'0 0.0
2018-Jun-16 04:28N 59°57' E 030°11'0 0.0
2018-Jun-16 03:55N 59°57' E 030°11'0 0.0
2018-Jun-16 03:30N 59°57' E 030°11'0 0.0
2018-Jun-16 03:00N 59°57' E 030°11'0 0.0
2018-Jun-16 02:25N 59°57' E 030°11'0 0.0
2018-Jun-16 01:56N 59°57' E 030°11'0 0.0
2018-Jun-16 01:28N 59°57' E 030°11'0 0.0
2018-Jun-16 01:00N 59°57' E 030°11'0 0.0
2018-Jun-16 00:22N 59°57' E 030°11'0 0.0
2018-Jun-15 23:56N 59°57' E 030°11'0 0.0
2018-Jun-15 23:22N 59°57' E 030°11'0 0.0
2018-Jun-15 22:59N 59°57' E 030°11'0 0.0
2018-Jun-15 22:30N 59°57' E 030°11'0 0.0
2018-Jun-15 21:57N 59°57' E 030°11'0 0.0
2018-Jun-15 21:29N 59°57' E 030°11'0 0.0
2018-Jun-15 20:55N 59°57' E 030°11'0 0.0
2018-Jun-15 20:23N 59°57' E 030°11'0 0.0
2018-Jun-15 19:48N 59°57' E 030°11'0 0.0
2018-Jun-15 19:30N 59°57' E 030°11'0 0.0
2018-Jun-15 18:58N 59°57' E 030°11'0 0.0
2018-Jun-15 18:28N 59°57' E 030°11'0 0.0
2018-Jun-15 18:00N 59°57' E 030°11'0 0.0
2018-Jun-15 17:26N 59°57' E 030°11'0 0.0
2018-Jun-15 16:59N 59°57' E 030°11'0 0.0
2018-Jun-15 16:29N 59°57' E 030°11'0 0.0
2018-Jun-15 16:00N 59°57' E 030°11'0 0.0
2018-Jun-15 15:28N 59°57' E 030°11'0 0.0
2018-Jun-15 15:01N 59°57' E 030°11'0 0.0
2018-Jun-15 14:30N 59°57' E 030°11'0 0.0
2018-Jun-15 13:58N 59°57' E 030°11'0 0.0
2018-Jun-15 13:30N 59°57' E 030°11'0 0.0
2018-Jun-15 12:58N 59°57' E 030°11'0 0.0
2018-Jun-15 12:30N 59°57' E 030°11'0 0.0
2018-Jun-15 11:58N 59°57' E 030°11'0 0.0
2018-Jun-15 11:28N 59°57' E 030°11'0 0.0
2018-Jun-15 11:00N 59°57' E 030°11'0 0.0
2018-Jun-15 10:30N 59°57' E 030°11'0 0.0
2018-Jun-15 09:59N 59°57' E 030°11'0 0.0
2018-Jun-15 09:29N 59°57' E 030°11'0 0.0
2018-Jun-15 08:59N 59°57' E 030°11'0 0.0
2018-Jun-15 08:29N 59°57' E 030°11'0 0.0
2018-Jun-15 08:00N 59°57' E 030°11'0 0.0
2018-Jun-15 07:29N 59°57' E 030°11'0 0.0
2018-Jun-15 06:59N 59°57' E 030°11'0 0.0
2018-Jun-15 06:25N 59°57' E 030°11'0 0.0
2018-Jun-15 05:57N 59°57' E 030°11'0 0.0
2018-Jun-15 05:28N 59°57' E 030°11'0 0.0
2018-Jun-15 05:00N 59°57' E 030°11'0 0.0
2018-Jun-15 04:26N 59°57' E 030°11'0 0.0
2018-Jun-15 03:55N 59°57' E 030°11'0 0.2
2018-Jun-15 03:30N 59°57' E 030°11'3 5.0
2018-Jun-15 03:00N 59°57' E 030°06'4 8.7
2018-Jun-15 02:30N 59°56' E 029°57'510.4
2018-Jun-15 02:00N 59°58' E 029°48'5 8.8
2018-Jun-15 01:25N 60°00' E 029°39'511.5
2018-Jun-15 01:00N 60°01' E 029°29'712.9
2018-Jun-15 00:27N 60°01' E 029°15'613.9
2018-Jun-15 00:00N 60°01' E 029°03'918.0
2018-Jun-14 23:30N 60°02' E 028°45'918.1
2018-Jun-14 23:00N 60°03' E 028°27'917.5
2018-Jun-14 22:30N 60°08' E 028°12'815.1
2018-Jun-14 22:00N 60°10' E 027°57'816.1
2018-Jun-14 21:30N 60°09' E 027°41'817.1
2018-Jun-14 21:00N 60°05' E 027°26'917.1
2018-Jun-14 20:28N 60°00' E 027°10'816.5
2018-Jun-14 20:00N 59°59' E 026°55'816.7
2018-Jun-14 19:30N 59°60' E 026°39'917.0
2018-Jun-14 19:00N 59°58' E 026°22'714.9
2018-Jun-14 18:30N 59°56' E 026°08'714.3
2018-Jun-14 18:00N 59°54' E 025°55'714.0
2018-Jun-14 17:31N 59°52' E 025°41'713.9
2018-Jun-14 17:00N 59°50' E 025°28'11705.0
2018-Jun-14 17:00N 59°48' E 025°48'1735.3 120 / 201012.310.8 15.510.814.0
2018-Jun-14 16:30N 59°49' E 025°14'714.0
2018-Jun-14 16:00N 59°48' E 025°00'612.2
2018-Jun-14 15:30N 59°52' E 024°53'714.1
2018-Jun-14 15:00N 59°59' E 024°57'612.8
2018-Jun-14 14:31N 60°05' E 024°54'4 7.1
2018-Jun-14 13:59N 60°09' E 024°55'0 0.0
2018-Jun-14 13:31N 60°09' E 024°55'0 0.0
2018-Jun-14 13:00N 60°09' E 024°55'  
Track history (hours):
 
Tides and Currents Weather Stations Pressure Air Temp Water Temp Dewpoint Dewpoint Depression Visibility Wind Speed Wind Dir Waves Ship Positions

Azure

Last reported at 2018-Jun-24 13:00 UTC. Time now 2018-Jun-24 20:17 UTC.
Position N 54°18' E 003°36'.

Length 289 m; draft 8.7 m.

Type: Passenger vessel. MMSI: 310610000.

Wind from 340 at 22 knots

Barometer 1023.7 mb
Air temperature 14.0 ° C
Visibility: greater than 10.8 NM
Dewpoint 11.2 ° C
Water temperature 14.0 ° C

Date/timePositionNaut miles runAvg speedWind from/ knotsBaromVisibWave heightAir tempDewpointWater temp
2018-Jun-24 13:00N 54°18' E 003°36'4816.1 340 / 221023.710.8 14.011.214.0
2018-Jun-24 10:00N 53°34' E 003°03'918.2
2018-Jun-24 09:28N 53°25' E 002°56'918.2
2018-Jun-24 09:00N 53°18' E 002°48'419.3 310 / 181021.610.8 15.0 9.213.0
2018-Jun-24 08:46N 53°14' E 002°47'918.0
2018-Jun-24 08:16N 53°05' E 002°42'717.6
2018-Jun-24 07:53N 52°59' E 002°40'717.5
2018-Jun-24 07:30N 52°52' E 002°40'1017.2
2018-Jun-24 06:56N 52°42' E 002°41'717.3
2018-Jun-24 06:30N 52°35' E 002°41'917.3
2018-Jun-24 06:00N 52°26' E 002°41'917.3
2018-Jun-24 05:30N 52°18' E 002°41'917.3
2018-Jun-24 05:00N 52°09' E 002°40'917.3
2018-Jun-24 04:30N 52°00' E 002°40'917.3
2018-Jun-24 04:00N 51°52' E 002°37'917.6
2018-Jun-24 03:30N 51°44' E 002°31'917.9
2018-Jun-24 03:01N 51°37' E 002°22'918.3
2018-Jun-24 02:31N 51°29' E 002°14'918.0
2018-Jun-24 02:01N 51°21' E 002°07'918.2
2018-Jun-24 01:30N 51°13' E 002°01'918.6
2018-Jun-24 01:00N 51°09' E 001°48'5322.4
2018-Jun-24 01:00N 51°12' E 001°54'1529.9 050 / 101024.610.8 15.011.315.0
2018-Jun-24 00:30N 51°03' E 001°36'918.7
2018-Jun-24 00:00N 50°55' E 001°29'1019.6
2018-Jun-23 23:31N 50°45' E 001°25'918.9
2018-Jun-23 23:00N 50°38' E 001°16'918.9
2018-Jun-23 22:31N 50°33' E 001°03'918.8
2018-Jun-23 22:00N 50°30' E 000°49'918.7
2018-Jun-23 21:31N 50°27' E 000°35'918.6
2018-Jun-23 21:01N 50°25' E 000°21'1018.8
2018-Jun-23 20:30N 50°23' E 000°06'918.9
2018-Jun-23 20:00N 50°24' W 000°08'1019.5
2018-Jun-23 19:31N 50°28' W 000°22'1019.6
2018-Jun-23 19:01N 50°32' W 000°36'918.9
2018-Jun-23 18:30N 50°37' W 000°49'612.8
2018-Jun-23 18:00N 50°41' W 000°57'714.4
2018-Jun-23 17:30N 50°45' W 001°06'816.7
2018-Jun-23 17:00N 50°47' W 001°19'4 8.7
2018-Jun-23 16:30N 50°51' W 001°21'3 5.3
2018-Jun-23 15:59N 50°53' W 001°24'0 0.0
2018-Jun-23 15:29N 50°53' W 001°24'0 0.0
2018-Jun-23 14:59N 50°53' W 001°24'0 0.0
2018-Jun-23 14:29N 50°53' W 001°24'0 0.0
2018-Jun-23 13:59N 50°53' W 001°24'0 0.0
2018-Jun-23 13:29N 50°53' W 001°24'0 0.0
2018-Jun-23 12:59N 50°53' W 001°24'0 0.0
2018-Jun-23 12:29N 50°53' W 001°24'0 0.0
2018-Jun-23 11:59N 50°53' W 001°24'0 0.0
2018-Jun-23 11:29N 50°53' W 001°24'0 0.0
2018-Jun-23 10:59N 50°53' W 001°24'0 0.0
2018-Jun-23 10:29N 50°53' W 001°24'0 0.0
2018-Jun-23 09:59N 50°53' W 001°24'0 0.0
2018-Jun-23 09:29N 50°53' W 001°24'0 0.0
2018-Jun-23 08:59N 50°53' W 001°24'0 0.0
2018-Jun-23 08:28N 50°53' W 001°24'0 0.0
2018-Jun-23 07:58N 50°53' W 001°24'0 0.0
2018-Jun-23 07:28N 50°53' W 001°24'0 0.0
2018-Jun-23 06:58N 50°53' W 001°24'0 0.0
2018-Jun-23 06:28N 50°53' W 001°24'0 0.0
2018-Jun-23 05:58N 50°53' W 001°24'0 0.0
2018-Jun-23 05:28N 50°53' W 001°24'0 0.4
2018-Jun-23 05:00N 50°53' W 001°24'2 4.4
2018-Jun-23 04:30N 50°52' W 001°22'4 9.0
2018-Jun-23 04:00N 50°48' W 001°18'510.7
2018-Jun-23 03:30N 50°46' W 001°10'816.6
2018-Jun-23 03:01N 50°42' W 000°58'612.1
2018-Jun-23 02:31N 50°38' W 000°52'713.8
2018-Jun-23 02:01N 50°36' W 000°42'714.0
2018-Jun-23 01:30N 50°33' W 000°31'815.2
2018-Jun-23 01:00N 50°33' W 000°19'917.2
2018-Jun-23 00:30N 50°31' W 000°06'1019.6
2018-Jun-23 00:00N 50°33' E 000°09'3202.3
2018-Jun-23 00:00N 50°30' E 000°06'1224.6 130 / 121030.610.8 14.011.214.0
2018-Jun-22 23:30N 50°34' E 000°23'918.6
2018-Jun-22 23:00N 50°38' E 000°37'918.3
2018-Jun-22 22:30N 50°42' E 000°50'917.8
2018-Jun-22 22:00N 50°48' E 001°01'917.7
2018-Jun-22 21:30N 50°53' E 001°12'917.2
2018-Jun-22 21:00N 50°58' E 001°23'917.6
2018-Jun-22 20:30N 51°05' E 001°32'917.5
2018-Jun-22 20:00N 51°11' E 001°41'917.3
2018-Jun-22 19:30N 51°19' E 001°49'917.8
2018-Jun-22 19:00N 51°26' E 001°57'918.2
2018-Jun-22 18:30N 51°32' E 002°08'918.4
2018-Jun-22 18:00N 51°39' E 002°18'1019.1
2018-Jun-22 17:29N 51°46' E 002°28'1018.8
2018-Jun-22 16:58N 51°55' E 002°36'5518.7
2018-Jun-22 14:02N 52°47' E 003°07'14215.7
2018-Jun-22 05:00N 54°48' E 005°12'9724.3 090 / 501022.210.8 16.013.314.0
2018-Jun-22 01:00N 56°06' E 006°54'16418.6 340 / 381013.010.8 12.0 7.914.0
2018-Jun-21 16:09N 57°50' E 010°47'518.0
2018-Jun-21 15:51N 57°45' E 010°46'9 0.8
2018-Jun-21 05:21N 57°41' E 011°00'719.5
2018-Jun-21 05:00N 57°37' E 011°10'1020.0
2018-Jun-21 04:30N 57°30' E 011°24'1019.3
2018-Jun-21 04:00N 57°21' E 011°32'7017.7
2018-Jun-21 00:03N 56°15' E 012°15'118.1
2018-Jun-21 00:00N 56°15' E 012°16'917.9
2018-Jun-20 23:30N 56°10' E 012°30'815.7
2018-Jun-20 23:00N 56°04' E 012°38'815.9
2018-Jun-20 22:30N 55°56' E 012°39'815.7
2018-Jun-20 22:00N 55°48' E 012°43'611.5
2018-Jun-20 21:30N 55°43' E 012°39'2 3.5
2018-Jun-20 20:59N 55°42' E 012°36'0 0.0
2018-Jun-20 20:28N 55°42' E 012°36'0 0.0
2018-Jun-20 19:59N 55°42' E 012°36'0 0.0
2018-Jun-20 19:31N 55°42' E 012°36'0 0.0
2018-Jun-20 19:01N 55°42' E 012°36'0 0.0
2018-Jun-20 18:29N 55°42' E 012°36'0 0.0
2018-Jun-20 17:59N 55°42' E 012°36'0 0.0
2018-Jun-20 17:29N 55°42' E 012°36'0 0.0
2018-Jun-20 16:59N 55°42' E 012°36'0 0.0
2018-Jun-20 16:28N 55°42' E 012°36'0 0.0
2018-Jun-20 15:59N 55°42' E 012°36'0 0.0
2018-Jun-20 15:29N 55°42' E 012°36'0 0.0
2018-Jun-20 14:59N 55°42' E 012°36'0 0.0
2018-Jun-20 14:28N 55°42' E 012°36'0 0.0
2018-Jun-20 13:58N 55°42' E 012°36'0 0.0
2018-Jun-20 13:28N 55°42' E 012°36'0 0.0
2018-Jun-20 12:58N 55°42' E 012°36'0 0.0
2018-Jun-20 12:30N 55°42' E 012°36'0 0.0
2018-Jun-20 12:00N 55°42' E 012°36'0 0.0
2018-Jun-20 11:30N 55°42' E 012°36'0 0.0
2018-Jun-20 11:00N 55°42' E 012°36'0 0.0
2018-Jun-20 10:30N 55°42' E 012°36'0 0.0
2018-Jun-20 09:59N 55°42' E 012°36'0 0.0
2018-Jun-20 09:29N 55°42' E 012°36'0 0.0
2018-Jun-20 09:00N 55°42' E 012°36'0 0.0
2018-Jun-20 08:29N 55°42' E 012°36'0 0.0
2018-Jun-20 08:00N 55°42' E 012°36'0 0.0
2018-Jun-20 07:30N 55°42' E 012°36'0 0.1
2018-Jun-20 07:00N 55°42' E 012°36'1 1.7
2018-Jun-20 06:30N 55°43' E 012°37'510.6
2018-Jun-20 06:00N 55°47' E 012°42'815.4
2018-Jun-20 05:30N 55°54' E 012°38'917.1
2018-Jun-20 05:00N 56°03' E 012°39'816.1
2018-Jun-20 04:30N 56°08' E 012°28'1417.7
2018-Jun-20 03:44N 56°11' E 012°03'5914.5
2018-Jun-19 23:41N 55°24' E 011°00'818.1
2018-Jun-19 23:16N 55°17' E 011°03'518.0
2018-Jun-19 23:00N 55°12' E 011°06'917.7
2018-Jun-19 22:30N 55°04' E 011°02'917.1
2018-Jun-19 22:00N 54°56' E 010°56'815.9
2018-Jun-19 21:30N 54°49' E 010°52'713.6
2018-Jun-19 21:00N 54°42' E 010°55'917.9
2018-Jun-19 20:30N 54°38' E 011°08'918.4
2018-Jun-19 20:00N 54°34' E 011°23'918.6
2018-Jun-19 19:30N 54°29' E 011°36'918.4
2018-Jun-19 19:00N 54°27' E 011°52'918.3
2018-Jun-19 18:30N 54°27' E 012°07'917.6
2018-Jun-19 18:00N 54°35' E 012°14'6518.4
2018-Jun-19 14:28N 55°01' E 013°56'919.6
2018-Jun-19 14:00N 55°07' E 014°10'1019.8
2018-Jun-19 13:30N 55°15' E 014°20'1019.8
2018-Jun-19 13:00N 55°22' E 014°31'1019.8
2018-Jun-19 12:30N 55°28' E 014°45'1019.8
2018-Jun-19 11:58N 55°34' E 015°00'1219.5
2018-Jun-19 11:22N 55°41' E 015°18'3928.3
2018-Jun-19 10:00N 56°00' E 016°18'15018.8 250 / 381013.2 16.510.916.0
2018-Jun-19 02:00N 58°12' E 018°30'5518.3 220 / 301008.310.8 17.013.516.0
2018-Jun-18 22:57N 58°60' E 019°24'920.0
2018-Jun-18 22:30N 59°08' E 019°33'1120.8
2018-Jun-18 21:57N 59°17' E 019°45'1020.1
2018-Jun-18 21:28N 59°26' E 019°55'4 9.3
2018-Jun-18 21:00N 59°30' E 019°54'6146.7 230 / 251010.710.8 14.512.7
2018-Jun-18 20:57N 59°36' E 019°58'1019.6
2018-Jun-18 20:27N 59°43' E 019°47'919.2
2018-Jun-18 20:00N 59°47' E 019°31'816.3
2018-Jun-18 19:29N 59°45' E 019°16'918.0
2018-Jun-18 18:59N 59°41' E 018°59'510.3
2018-Jun-18 18:30N 59°38' E 018°52'612.2
2018-Jun-18 18:00N 59°35' E 018°42'510.4
2018-Jun-18 17:30N 59°32' E 018°33'510.7
2018-Jun-18 17:00N 59°28' E 018°26'4 8.7
2018-Jun-18 16:30N 59°24' E 018°27'3 5.3
2018-Jun-18 16:00N 59°22' E 018°22'4 8.9
2018-Jun-18 15:30N 59°21' E 018°14'4 8.3
2018-Jun-18 15:00N 59°19' E 018°06'0 0.1
2018-Jun-18 14:23N 59°19' E 018°06'0 0.0
2018-Jun-18 13:59N 59°19' E 018°06'0 0.0
2018-Jun-18 13:29N 59°19' E 018°06'0 0.0
2018-Jun-18 12:59N 59°19' E 018°06'0 0.0
2018-Jun-18 12:29N 59°19' E 018°06'0 0.0
2018-Jun-18 12:00N 59°19' E 018°06'0 0.0
2018-Jun-18 11:25N 59°19' E 018°06'0 0.0
2018-Jun-18 10:56N 59°19' E 018°06'0 0.0
2018-Jun-18 10:17N 59°19' E 018°06'0 0.0
2018-Jun-18 09:59N 59°19' E 018°06'0 0.0
2018-Jun-18 09:30N 59°19' E 018°06'0 0.0
2018-Jun-18 08:58N 59°19' E 018°06'0 0.0
2018-Jun-18 08:27N 59°19' E 018°06'0 0.0
2018-Jun-18 07:57N 59°19' E 018°06'0 0.0
2018-Jun-18 07:27N 59°19' E 018°06'0 0.0
2018-Jun-18 06:33N 59°19' E 018°06'0 0.0
2018-Jun-18 06:14N 59°19' E 018°06'0 0.0
2018-Jun-18 06:00N 59°19' E 018°06'0 0.4
2018-Jun-18 05:30N 59°19' E 018°07'2 3.4
2018-Jun-18 05:00N 59°19' E 018°10'611.2
2018-Jun-18 04:30N 59°23' E 018°19'4 8.2
2018-Jun-18 04:00N 59°22' E 018°27'4 8.8
2018-Jun-18 03:30N 59°27' E 018°24'510.7
2018-Jun-18 03:00N 59°31' E 018°30'5 9.8
2018-Jun-18 02:30N 59°34' E 018°38'611.3
2018-Jun-18 02:00N 59°37' E 018°48'510.6
2018-Jun-18 01:29N 59°40' E 018°56'815.3
2018-Jun-18 00:58N 59°44' E 019°10'816.0
2018-Jun-18 00:27N 59°47' E 019°25'714.4
2018-Jun-17 23:59N 59°48' E 019°39'916.6
2018-Jun-17 23:28N 59°44' E 019°53'2316.2
2018-Jun-17 22:02N 59°37' E 020°37'017.4
2018-Jun-17 22:00N 59°37' E 020°38'917.4
2018-Jun-17 21:30N 59°33' E 020°54'917.4
2018-Jun-17 21:00N 59°30' E 021°10'917.4
2018-Jun-17 20:31N 59°26' E 021°25'917.1
2018-Jun-17 20:00N 59°26' E 021°42'917.4
2018-Jun-17 19:28N 59°26' E 022°01'917.0
2018-Jun-17 18:55N 59°27' E 022°19'717.3
2018-Jun-17 18:31N 59°29' E 022°32'917.5
2018-Jun-17 18:00N 59°32' E 022°49'917.4
2018-Jun-17 17:31N 59°33' E 023°06'917.2
2018-Jun-17 17:00N 59°34' E 023°23'917.3
2018-Jun-17 16:30N 59°32' E 023°39'917.4
2018-Jun-17 16:00N 59°31' E 023°56'917.3
2018-Jun-17 15:31N 59°30' E 024°13'917.6
2018-Jun-17 15:00N 59°30' E 024°31'612.7
2018-Jun-17 14:30N 59°32' E 024°43'510.4
2018-Jun-17 14:00N 59°27' E 024°46'0 0.7
2018-Jun-17 13:30N 59°27' E 024°46'0 0.0
2018-Jun-17 12:59N 59°27' E 024°46'0 0.0
2018-Jun-17 12:28N 59°27' E 024°46'0 0.0
2018-Jun-17 12:00N 59°27' E 024°46'0 0.0
2018-Jun-17 11:30N 59°27' E 024°46'0 0.0
2018-Jun-17 11:00N 59°27' E 024°46'0 0.0
2018-Jun-17 10:29N 59°27' E 024°46'0 0.0
2018-Jun-17 10:00N 59°27' E 024°46'0 0.0
2018-Jun-17 09:28N 59°27' E 024°46'0 0.0
2018-Jun-17 09:00N 59°27' E 024°46'0 0.0
2018-Jun-17 08:29N 59°27' E 024°46'0 0.0
2018-Jun-17 07:55N 59°27' E 024°46'0 0.0
2018-Jun-17 07:30N 59°27' E 024°46'0 0.0
2018-Jun-17 06:59N 59°27' E 024°46'0 0.0
2018-Jun-17 06:28N 59°27' E 024°46'0 0.0
2018-Jun-17 05:58N 59°27' E 024°46'0 0.0
2018-Jun-17 05:28N 59°27' E 024°46'0 0.0
2018-Jun-17 04:58N 59°27' E 024°46'0 0.1
2018-Jun-17 04:30N 59°27' E 024°46'3 6.3
2018-Jun-17 04:01N 59°30' E 024°44'815.5
2018-Jun-17 03:30N 59°37' E 024°39'612.5
2018-Jun-17 03:00N 59°44' E 024°39'815.7
2018-Jun-17 02:30N 59°50' E 024°48'918.4
2018-Jun-17 02:00N 59°52' E 025°06'918.5
2018-Jun-17 01:30N 59°53' E 025°24'1018.0
2018-Jun-17 00:57N 59°54' E 025°44'818.1
2018-Jun-17 00:30N 59°56' E 025°60'917.9
2018-Jun-17 00:00N 59°59' E 026°17'7592.2
2018-Jun-17 00:00N 59°54' E 026°06'1632.7 140 / 91017.110.8 18.014.617.0
2018-Jun-16 23:30N 60°01' E 026°34'917.8
2018-Jun-16 23:00N 60°00' E 026°52'817.0
2018-Jun-16 22:30N 60°01' E 027°09'918.2
2018-Jun-16 22:00N 60°06' E 027°24'918.1
2018-Jun-16 21:30N 60°10' E 027°40'816.5
2018-Jun-16 21:00N 60°10' E 027°56'917.5
2018-Jun-16 20:30N 60°08' E 028°13'917.1
2018-Jun-16 20:00N 60°04' E 028°28'817.0
2018-Jun-16 19:30N 60°03' E 028°45'917.8
2018-Jun-16 19:00N 60°02' E 029°03'917.7
2018-Jun-16 18:30N 60°02' E 029°21'511.3
2018-Jun-16 18:00N 60°01' E 029°32'711.2
2018-Jun-16 17:25N 59°59' E 029°44'4 9.1
2018-Jun-16 17:00N 59°57' E 029°51'510.3
2018-Jun-16 16:30N 59°55' E 030°00'5 9.4
2018-Jun-16 16:00N 59°57' E 030°09'1 1.8
2018-Jun-16 15:28N 59°57' E 030°11'0 0.0
2018-Jun-16 14:58N 59°57' E 030°11'0 0.0
2018-Jun-16 14:30N 59°57' E 030°11'0 0.0
2018-Jun-16 14:01N 59°57' E 030°11'0 0.0
2018-Jun-16 13:28N 59°57' E 030°11'0 0.0
2018-Jun-16 12:59N 59°57' E 030°11'0 0.0
2018-Jun-16 12:25N 59°57' E 030°11'0 0.0
2018-Jun-16 12:00N 59°57' E 030°11'0 0.0
2018-Jun-16 11:27N 59°57' E 030°11'0 0.0
2018-Jun-16 11:00N 59°57' E 030°11'0 0.0
2018-Jun-16 10:29N 59°57' E 030°11'0 0.0
2018-Jun-16 09:55N 59°57' E 030°11'0 0.0
2018-Jun-16 09:30N 59°57' E 030°11'0 0.0
2018-Jun-16 09:01N 59°57' E 030°11'0 0.0
2018-Jun-16 08:30N 59°57' E 030°11'0 0.0
2018-Jun-16 07:56N 59°57' E 030°11'0 0.0
2018-Jun-16 07:13N 59°57' E 030°11'0 0.0
2018-Jun-16 06:56N 59°57' E 030°11'0 0.0
2018-Jun-16 06:29N 59°57' E 030°11'0 0.0
2018-Jun-16 05:49N 59°57' E 030°11'0 0.0
2018-Jun-16 05:28N 59°57' E 030°11'0 0.0
2018-Jun-16 05:00N 59°57' E 030°11'0 0.0
2018-Jun-16 04:28N 59°57' E 030°11'0 0.0
2018-Jun-16 03:55N 59°57' E 030°11'0 0.0
2018-Jun-16 03:30N 59°57' E 030°11'0 0.0
2018-Jun-16 03:00N 59°57' E 030°11'0 0.0
2018-Jun-16 02:25N 59°57' E 030°11'0 0.0
2018-Jun-16 01:56N 59°57' E 030°11'0 0.0
2018-Jun-16 01:28N 59°57' E 030°11'0 0.0
2018-Jun-16 01:00N 59°57' E 030°11'0 0.0
2018-Jun-16 00:22N 59°57' E 030°11'0 0.0
2018-Jun-15 23:56N 59°57' E 030°11'0 0.0
2018-Jun-15 23:22N 59°57' E 030°11'0 0.0
2018-Jun-15 22:59N 59°57' E 030°11'0 0.0
2018-Jun-15 22:30N 59°57' E 030°11'0 0.0
2018-Jun-15 21:57N 59°57' E 030°11'0 0.0
2018-Jun-15 21:29N 59°57' E 030°11'0 0.0
2018-Jun-15 20:55N 59°57' E 030°11'0 0.0
2018-Jun-15 20:23N 59°57' E 030°11'0 0.0
2018-Jun-15 19:48N 59°57' E 030°11'0 0.0
2018-Jun-15 19:30N 59°57' E 030°11'0 0.0
2018-Jun-15 18:58N 59°57' E 030°11'0 0.0
2018-Jun-15 18:28N 59°57' E 030°11'0 0.0
2018-Jun-15 18:00N 59°57' E 030°11'0 0.0
2018-Jun-15 17:26N 59°57' E 030°11'0 0.0
2018-Jun-15 16:59N 59°57' E 030°11'0 0.0
2018-Jun-15 16:29N 59°57' E 030°11'0 0.0
2018-Jun-15 16:00N 59°57' E 030°11'0 0.0
2018-Jun-15 15:28N 59°57' E 030°11'0 0.0
2018-Jun-15 15:01N 59°57' E 030°11'0 0.0
2018-Jun-15 14:30N 59°57' E 030°11'0 0.0
2018-Jun-15 13:58N 59°57' E 030°11'0 0.0
2018-Jun-15 13:30N 59°57' E 030°11'0 0.0
2018-Jun-15 12:58N 59°57' E 030°11'0 0.0
2018-Jun-15 12:30N 59°57' E 030°11'0 0.0
2018-Jun-15 11:58N 59°57' E 030°11'0 0.0
2018-Jun-15 11:28N 59°57' E 030°11'0 0.0
2018-Jun-15 11:00N 59°57' E 030°11'0 0.0
2018-Jun-15 10:30N 59°57' E 030°11'0 0.0
2018-Jun-15 09:59N 59°57' E 030°11'0 0.0
2018-Jun-15 09:29N 59°57' E 030°11'0 0.0
2018-Jun-15 08:59N 59°57' E 030°11'0 0.0
2018-Jun-15 08:29N 59°57' E 030°11'0 0.0
2018-Jun-15 08:00N 59°57' E 030°11'0 0.0
2018-Jun-15 07:29N 59°57' E 030°11'0 0.0
2018-Jun-15 06:59N 59°57' E 030°11'0 0.0
2018-Jun-15 06:25N 59°57' E 030°11'0 0.0
2018-Jun-15 05:57N 59°57' E 030°11'0 0.0
2018-Jun-15 05:28N 59°57' E 030°11'0 0.0
2018-Jun-15 05:00N 59°57' E 030°11'0 0.0
2018-Jun-15 04:26N 59°57' E 030°11'0 0.0
2018-Jun-15 03:55N 59°57' E 030°11'0 0.2
2018-Jun-15 03:30N 59°57' E 030°11'3 5.0
2018-Jun-15 03:00N 59°57' E 030°06'4 8.7
2018-Jun-15 02:30N 59°56' E 029°57'510.4
2018-Jun-15 02:00N 59°58' E 029°48'5 8.8
2018-Jun-15 01:25N 60°00' E 029°39'511.5
2018-Jun-15 01:00N 60°01' E 029°29'712.9
2018-Jun-15 00:27N 60°01' E 029°15'613.9
2018-Jun-15 00:00N 60°01' E 029°03'918.0
2018-Jun-14 23:30N 60°02' E 028°45'918.1
2018-Jun-14 23:00N 60°03' E 028°27'917.5
2018-Jun-14 22:30N 60°08' E 028°12'815.1
2018-Jun-14 22:00N 60°10' E 027°57'816.1
2018-Jun-14 21:30N 60°09' E 027°41'817.1
2018-Jun-14 21:00N 60°05' E 027°26'917.1
2018-Jun-14 20:28N 60°00' E 027°10'816.5
2018-Jun-14 20:00N 59°59' E 026°55'816.7
2018-Jun-14 19:30N 59°60' E 026°39'917.0
2018-Jun-14 19:00N 59°58' E 026°22'714.9
2018-Jun-14 18:30N 59°56' E 026°08'714.3
2018-Jun-14 18:00N 59°54' E 025°55'714.0
2018-Jun-14 17:31N 59°52' E 025°41'713.9
2018-Jun-14 17:00N 59°50' E 025°28'11705.0
2018-Jun-14 17:00N 59°48' E 025°48'1735.3 120 / 201012.310.8 15.510.814.0
2018-Jun-14 16:30N 59°49' E 025°14'714.0
2018-Jun-14 16:00N 59°48' E 025°00'612.2
2018-Jun-14 15:30N 59°52' E 024°53'714.1
2018-Jun-14 15:00N 59°59' E 024°57'612.8
2018-Jun-14 14:31N 60°05' E 024°54'4 7.1
2018-Jun-14 13:59N 60°09' E 024°55'0 0.0
2018-Jun-14 13:31N 60°09' E 024°55'0 0.0
2018-Jun-14 13:00N 60°09' E 024°55'  

Dump ship's entire track history